Time;durP1;ratioP1;P1;durP2;ratioP2;P2;SDS_P1;SDS_P2;PMS_P1;PMS_P2;Temp;Humidity;BMP_temperature;BMP_pressure;BME280_temperature;BME280_humidity;BME280_pressure;Samples;Min_cycle;Max_cycle;Signal;HPM_P1;HPM_P2
2021/04/06 00:00:53;;;;;;;4.22;3.00;;;8.50;79.40;;;;;;5078802;28;20024;-72
2021/04/06 00:03:23;;;;;;;4.70;2.80;;;8.40;80.90;;;;;;5079052;28;20344;-72
2021/04/06 00:05:51;;;;;;;4.63;3.17;;;8.30;80.60;;;;;;5078980;28;20024;-72
2021/04/06 00:08:18;;;;;;;4.50;3.25;;;8.40;80.40;;;;;;5061292;28;20316;-72
2021/04/06 00:10:51;;;;;;;7.20;3.25;;;8.50;79.90;;;;;;5078933;28;20386;-72
2021/04/06 00:13:17;;;;;;;5.00;3.03;;;8.40;79.70;;;;;;5078952;28;20028;-72
2021/04/06 00:15:46;;;;;;;3.97;2.58;;;8.40;80.10;;;;;;5079100;28;20028;-72
2021/04/06 00:18:16;;;;;;;4.45;2.40;;;8.40;80.10;;;;;;5078821;28;20013;-72
2021/04/06 00:20:43;;;;;;;5.90;2.70;;;8.40;80.10;;;;;;5061024;28;20044;-72
2021/04/06 00:23:11;;;;;;;6.30;3.25;;;8.40;80.30;;;;;;5078839;28;20035;-72
2021/04/06 00:25:42;;;;;;;5.20;2.63;;;8.40;80.30;;;;;;5078851;28;20048;-72
2021/04/06 00:28:12;;;;;;;8.05;2.92;;;8.30;80.40;;;;;;5078648;28;20039;-72
2021/04/06 00:30:41;;;;;;;4.72;2.70;;;8.20;80.70;;;;;;5078449;28;20051;-72
2021/04/06 00:33:15;;;;;;;7.97;3.45;;;8.20;80.50;;;;;;5078453;28;20025;-72
2021/04/06 00:35:41;;;;;;;8.30;3.70;;;8.20;80.30;;;;;;5078603;28;20355;-72
2021/04/06 00:38:17;;;;;;;5.07;2.63;;;8.20;80.30;;;;;;5078569;28;20078;-72
2021/04/06 00:40:45;;;;;;;;;;;8.30;80.00;;;;;;5078988;28;20082;-72
2021/04/06 00:43:11;;;;;;;5.07;2.63;;;8.30;79.80;;;;;;5060508;28;19908;-72
2021/04/06 00:45:39;;;;;;;11.43;2.97;;;8.40;79.70;;;;;;5078241;28;20320;-72
2021/04/06 00:48:23;;;;;;;5.72;2.60;;;8.40;79.80;;;;;;5078163;28;20024;-72
2021/04/06 00:51:04;;;;;;;5.00;2.90;;;8.40;79.80;;;;;;5078238;28;20324;-72
2021/04/06 00:53:56;;;;;;;5.50;2.85;;;8.40;79.90;;;;;;5078396;28;20039;-72
2021/04/06 00:56:29;;;;;;;5.10;2.70;;;8.30;80.40;;;;;;5077972;28;20450;-72
2021/04/06 00:59:00;;;;;;;7.32;2.78;;;8.30;80.80;;;;;;5077983;28;20439;-72
2021/04/06 01:01:37;;;;;;;4.82;2.63;;;8.30;81.40;;;;;;5078204;28;20025;-72
2021/04/06 01:04:24;;;;;;;13.27;3.38;;;8.30;81.90;;;;;;5078053;28;20082;-72
2021/04/06 01:06:59;;;;;;;7.07;3.03;;;8.40;81.70;;;;;;5078192;28;20028;-72
2021/04/06 01:09:42;;;;;;;6.93;2.88;;;8.40;81.40;;;;;;5077947;28;20024;-72
2021/04/06 01:12:10;;;;;;;7.55;3.20;;;8.50;81.40;;;;;;5077514;28;20107;-72
2021/04/06 01:14:41;;;;;;;7.82;3.15;;;8.50;81.80;;;;;;5059193;28;20316;-72
2021/04/06 01:17:08;;;;;;;8.52;2.90;;;8.50;82.00;;;;;;5060195;28;20319;-72
2021/04/06 01:19:35;;;;;;;10.43;3.33;;;8.60;82.10;;;;;;5077840;28;20016;-72
2021/04/06 01:22:23;;;;;;;6.38;3.08;;;8.60;82.00;;;;;;5077458;28;20036;-72
2021/04/06 01:24:48;;;;;;;7.75;3.10;;;8.60;82.20;;;;;;5076985;28;20420;-72
2021/04/06 01:27:17;;;;;;;6.97;3.17;;;8.40;83.00;;;;;;5077416;28;20084;-72
2021/04/06 01:29:54;;;;;;;5.82;2.95;;;8.30;83.50;;;;;;5077338;28;20085;-72
2021/04/06 01:32:22;;;;;;;6.38;2.92;;;8.30;83.00;;;;;;5077638;28;20025;-72
2021/04/06 01:34:50;;;;;;;7.53;3.47;;;8.30;83.00;;;;;;5077184;28;20052;-72
2021/04/06 01:37:25;;;;;;;13.70;4.68;;;8.30;82.70;;;;;;5077214;28;20112;-72
2021/04/06 01:39:55;;;;;;;7.88;2.80;;;8.30;82.30;;;;;;5077316;28;20025;-72
2021/04/06 01:42:24;;;;;;;10.95;3.33;;;8.30;82.20;;;;;;5077160;28;20112;-72
2021/04/06 01:44:53;;;;;;;5.63;2.65;;;8.40;82.00;;;;;;5077001;28;20024;-72
2021/04/06 01:47:20;;;;;;;6.07;3.00;;;8.40;81.50;;;;;;5077092;28;20020;-72
2021/04/06 01:49:46;;;;;;;5.32;3.10;;;8.30;81.90;;;;;;5077178;28;20021;-72
2021/04/06 01:52:13;;;;;;;6.70;3.15;;;8.30;83.20;;;;;;5077016;28;20409;-72
2021/04/06 01:54:41;;;;;;;9.13;2.85;;;8.40;82.90;;;;;;5077110;28;20036;-72
2021/04/06 01:57:12;;;;;;;6.05;3.50;;;8.40;82.60;;;;;;5076979;28;20058;-72
2021/04/06 01:59:45;;;;;;;7.78;3.30;;;8.30;82.10;;;;;;5076915;28;20021;-72
2021/04/06 02:02:11;;;;;;;7.35;3.38;;;8.20;82.60;;;;;;5076869;28;20051;-72
2021/04/06 02:04:41;;;;;;;8.43;3.13;;;8.20;82.40;;;;;;5077014;28;20052;-72
2021/04/06 02:07:09;;;;;;;10.73;3.40;;;8.20;82.40;;;;;;5059039;28;20016;-72
2021/04/06 02:09:35;;;;;;;5.22;3.33;;;8.10;82.70;;;;;;5077094;28;20028;-72
2021/04/06 02:12:01;;;;;;;4.80;3.17;;;8.10;83.00;;;;;;5076726;28;20484;-72
2021/04/06 02:14:30;;;;;;;8.13;3.47;;;8.00;82.80;;;;;;5076582;28;20120;-72
2021/04/06 02:17:01;;;;;;;8.25;3.40;;;8.00;83.00;;;;;;5076967;28;20047;-72
2021/04/06 02:19:34;;;;;;;10.30;3.35;;;8.10;83.00;;;;;;5076731;28;20024;-72
2021/04/06 02:22:02;;;;;;;7.03;3.10;;;8.20;82.90;;;;;;5076730;28;20032;-72
2021/04/06 02:24:36;;;;;;;8.88;2.92;;;8.20;82.80;;;;;;5076589;28;20179;-72
2021/04/06 02:27:05;;;;;;;6.72;2.80;;;8.30;82.60;;;;;;5076729;28;20107;-72
2021/04/06 02:29:36;;;;;;;4.32;2.92;;;8.40;82.10;;;;;;5076630;28;20048;-72
2021/04/06 02:32:07;;;;;;;5.13;3.10;;;8.30;81.40;;;;;;5076773;28;20056;-72
2021/04/06 02:34:44;;;;;;;7.15;3.28;;;8.20;81.60;;;;;;5076568;28;20428;-72
2021/04/06 02:37:20;;;;;;;7.95;3.15;;;8.20;81.50;;;;;;5076777;28;20058;-72
2021/04/06 02:39:48;;;;;;;6.70;3.30;;;8.10;82.50;;;;;;5076760;28;20380;-72
2021/04/06 02:42:35;;;;;;;7.63;3.08;;;8.00;82.80;;;;;;5076487;28;20051;-72
2021/04/06 02:45:15;;;;;;;4.53;2.97;;;8.00;83.10;;;;;;5076662;28;20427;-72
2021/04/06 02:47:48;;;;;;;5.50;2.70;;;8.00;82.90;;;;;;5076381;28;20044;-72
2021/04/06 02:50:23;;;;;;;6.32;2.75;;;8.10;82.30;;;;;;5076463;28;20112;-72
2021/04/06 02:52:50;;;;;;;6.23;2.83;;;8.20;80.70;;;;;;5076325;28;20039;-73
2021/04/06 02:55:17;;;;;;;8.93;3.28;;;8.10;80.90;;;;;;5076280;28;20315;-72
2021/04/06 02:57:47;;;;;;;7.82;3.13;;;8.10;81.00;;;;;;5076338;28;20416;-72
2021/04/06 03:00:27;;;;;;;6.60;3.03;;;8.20;80.80;;;;;;5076378;28;20031;-72
2021/04/06 03:02:57;;;;;;;9.90;3.30;;;8.20;80.10;;;;;;5058531;28;20029;-72
2021/04/06 03:05:34;;;;;;;5.53;3.08;;;8.20;80.30;;;;;;5076203;28;20021;-72
2021/04/06 03:08:00;;;;;;;7.63;2.92;;;8.30;80.30;;;;;;5076258;28;20167;-72
2021/04/06 03:10:28;;;;;;;10.75;4.60;;;8.30;80.90;;;;;;5076188;28;20035;-72
2021/04/06 03:12:53;;;;;;;7.15;3.15;;;8.30;81.20;;;;;;5076155;28;20097;-72
2021/04/06 03:15:24;;;;;;;5.93;3.88;;;8.10;81.90;;;;;;5076366;28;20065;-72
2021/04/06 03:17:52;;;;;;;11.90;4.22;;;8.00;82.30;;;;;;5076165;28;20099;-72
2021/04/06 03:20:19;;;;;;;8.13;3.33;;;8.00;82.50;;;;;;5076171;28;20369;-72
2021/04/06 03:22:48;;;;;;;7.20;3.00;;;8.00;82.90;;;;;;5058404;28;20139;-72
2021/04/06 03:25:15;;;;;;;10.77;3.60;;;8.00;82.50;;;;;;5076207;28;20051;-72
2021/04/06 03:27:44;;;;;;;10.75;2.95;;;8.10;82.00;;;;;;5076013;28;20039;-72
2021/04/06 03:30:11;;;;;;;8.65;2.95;;;8.00;81.80;;;;;;5058094;28;20159;-72
2021/04/06 03:32:38;;;;;;;5.45;3.00;;;8.00;82.50;;;;;;5075992;28;20031;-72
2021/04/06 03:35:04;;;;;;;8.18;4.07;;;8.10;82.40;;;;;;5075948;28;20036;-72
2021/04/06 03:37:30;;;;;;;4.22;2.85;;;8.10;82.50;;;;;;5078919;28;20017;-72
2021/04/06 03:39:56;;;;;;;7.82;2.67;;;8.10;82.60;;;;;;5079617;28;20039;-72
2021/04/06 03:42:26;;;;;;;4.53;3.25;;;8.10;81.60;;;;;;5079760;28;20451;-72
2021/04/06 03:45:09;;;;;;;8.18;3.13;;;8.00;80.60;;;;;;5079301;28;20058;-72
2021/04/06 03:47:58;;;;;;;7.10;3.08;;;8.00;81.20;;;;;;5061614;28;20021;-72
2021/04/06 03:50:34;;;;;;;5.25;2.83;;;7.90;81.70;;;;;;5079369;28;20106;-72
2021/04/06 03:53:05;;;;;;;9.07;2.70;;;7.90;82.20;;;;;;5079574;28;20035;-72
2021/04/06 03:55:32;;;;;;;8.38;3.10;;;7.90;82.90;;;;;;5061403;28;20025;-72
2021/04/06 03:58:19;;;;;;;3.75;2.83;;;7.90;83.40;;;;;;5079225;28;20021;-72
2021/04/06 04:00:44;;;;;;;6.30;2.80;;;7.90;83.60;;;;;;5061445;28;20051;-72
2021/04/06 04:03:10;;;;;;;5.35;3.05;;;7.90;83.60;;;;;;5078936;28;20409;-72
2021/04/06 04:05:36;;;;;;;4.30;2.70;;;7.90;83.20;;;;;;5078994;28;20070;-72
2021/04/06 04:08:02;;;;;;;12.77;3.15;;;7.90;83.10;;;;;;5079175;28;20026;-72
2021/04/06 04:10:28;;;;;;;7.13;3.30;;;7.80;82.90;;;;;;5079025;28;20320;-72
2021/04/06 04:12:54;;;;;;;7.93;3.80;;;7.70;83.00;;;;;;5078872;28;20016;-72
2021/04/06 04:15:21;;;;;;;5.78;3.63;;;7.70;82.80;;;;;;5079019;28;20316;-72
2021/04/06 04:17:51;;;;;;;6.05;3.20;;;7.60;83.30;;;;;;5078770;28;20038;-72
2021/04/06 04:20:19;;;;;;;8.05;3.67;;;7.40;83.70;;;;;;5078864;28;20047;-72
2021/04/06 04:22:46;;;;;;;10.73;3.65;;;7.30;84.00;;;;;;5079022;28;20300;-73
2021/04/06 04:25:13;;;;;;;7.57;3.72;;;7.20;84.50;;;;;;5078634;28;20039;-72
2021/04/06 04:27:40;;;;;;;6.85;3.42;;;7.30;84.60;;;;;;5060926;28;20052;-72
2021/04/06 04:30:07;;;;;;;6.25;3.47;;;7.40;84.50;;;;;;5078424;28;20044;-72
2021/04/06 04:32:33;;;;;;;5.47;3.65;;;7.30;83.70;;;;;;5078663;28;20048;-72
2021/04/06 04:34:59;;;;;;;9.77;3.40;;;7.40;83.70;;;;;;5078376;28;20106;-72
2021/04/06 04:37:24;;;;;;;8.40;3.50;;;7.40;83.80;;;;;;5078462;28;20521;-72
2021/04/06 04:39:50;;;;;;;6.65;3.70;;;7.40;83.50;;;;;;5061073;28;20354;-72
2021/04/06 04:42:18;;;;;;;8.60;3.28;;;7.40;82.40;;;;;;5078600;28;20404;-72
2021/04/06 04:44:44;;;;;;;5.38;3.33;;;7.40;79.80;;;;;;5078267;28;20029;-72
2021/04/06 04:47:09;;;;;;;5.60;3.10;;;7.40;79.40;;;;;;5060397;28;20028;-72
2021/04/06 04:49:35;;;;;;;6.00;3.53;;;7.50;80.00;;;;;;5078361;28;20107;-72
2021/04/06 04:52:01;;;;;;;6.28;3.08;;;7.50;80.10;;;;;;5078226;28;20036;-72
2021/04/06 04:54:27;;;;;;;5.78;3.83;;;7.50;79.10;;;;;;5078217;28;20405;-72
2021/04/06 04:56:53;;;;;;;5.22;3.70;;;7.40;77.70;;;;;;5078330;28;20086;-72
2021/04/06 04:59:19;;;;;;;7.47;4.40;;;7.40;77.20;;;;;;5078048;28;20027;-72
2021/04/06 05:01:46;;;;;;;10.02;4.88;;;7.60;76.00;;;;;;5077958;28;20021;-72
2021/04/06 05:04:11;;;;;;;5.93;4.15;;;7.70;75.70;;;;;;5077771;28;20032;-72
2021/04/06 05:06:37;;;;;;;8.82;3.47;;;7.70;77.20;;;;;;5078089;28;20099;-72
2021/04/06 05:09:04;;;;;;;9.57;3.70;;;7.70;78.60;;;;;;5078024;28;20036;-72
2021/04/06 05:11:30;;;;;;;7.25;3.20;;;7.80;79.30;;;;;;5060040;28;20032;-72
2021/04/06 05:13:56;;;;;;;7.28;3.60;;;7.90;79.90;;;;;;5077571;28;20033;-72
2021/04/06 05:16:21;;;;;;;7.72;3.92;;;7.90;80.00;;;;;;5078169;28;20021;-72
2021/04/06 05:18:47;;;;;;;8.50;3.60;;;7.90;80.80;;;;;;5077668;28;20048;-72
2021/04/06 05:21:13;;;;;;;6.65;2.88;;;7.90;81.10;;;;;;5077524;28;20031;-72
2021/04/06 05:23:39;;;;;;;7.47;3.40;;;8.00;72.00;;;;;;5077826;28;20028;-72
2021/04/06 05:26:05;;;;;;;6.63;3.00;;;7.90;76.20;;;;;;5077737;28;20447;-72
2021/04/06 05:28:30;;;;;;;5.03;3.28;;;7.90;78.10;;;;;;5077242;28;20089;-72
2021/04/06 05:30:56;;;;;;;8.32;3.10;;;7.90;77.20;;;;;;5077609;28;20328;-72
2021/04/06 05:33:23;;;;;;;2.88;2.28;;;8.00;78.70;;;;;;5077422;28;20028;-72
2021/04/06 05:35:50;;;;;;;2.55;1.67;;;7.90;74.10;;;;;;5059557;28;20031;-72
2021/04/06 05:38:16;;;;;;;9.32;2.08;;;7.90;68.50;;;;;;5077485;28;20021;-72
2021/04/06 05:40:42;;;;;;;3.80;2.03;;;7.90;68.80;;;;;;5059451;28;20025;-72
2021/04/06 05:43:09;;;;;;;5.30;2.80;;;7.90;69.30;;;;;;5077176;28;20025;-72
2021/04/06 05:45:38;;;;;;;5.28;3.10;;;7.90;72.00;;;;;;5059463;28;20021;-72
2021/04/06 05:48:05;;;;;;;11.27;2.83;;;7.80;76.90;;;;;;5077079;28;20032;-72
2021/04/06 05:50:32;;;;;;;8.07;3.63;;;7.70;77.30;;;;;;5059316;28;20329;-72
2021/04/06 05:53:00;;;;;;;4.57;2.85;;;7.60;78.30;;;;;;5077173;28;20103;-72
2021/04/06 05:55:26;;;;;;;4.63;2.80;;;7.50;78.30;;;;;;5076912;28;20021;-72
2021/04/06 05:57:55;;;;;;;6.93;2.88;;;7.50;78.50;;;;;;5076970;28;20320;-72
2021/04/06 06:00:22;;;;;;;2.85;1.83;;;7.40;79.20;;;;;;5076719;28;20113;-72
2021/04/06 06:02:47;;;;;;;6.63;2.88;;;7.40;78.00;;;;;;5076909;28;20029;-72
2021/04/06 06:05:18;;;;;;;7.45;3.40;;;7.40;78.90;;;;;;5077041;28;20036;-72
2021/04/06 06:07:44;;;;;;;4.10;1.80;;;7.40;81.20;;;;;;5076937;28;20028;-72
2021/04/06 06:10:27;;;;;;;3.65;1.75;;;7.30;74.10;;;;;;5076920;28;20107;-72
2021/04/06 06:12:55;;;;;;;1.20;0.60;;;7.40;67.40;;;;;;5076723;28;20036;-72
2021/04/06 06:15:21;;;;;;;1.42;0.60;;;7.60;58.90;;;;;;5076660;28;20340;-72
2021/04/06 07:50:14;;;;;;;0.32;0.20;;;8.30;32.90;;;;;;5072099;28;20039;-72
2021/04/06 07:52:40;;;;;;;1.40;0.40;;;8.10;32.80;;;;;;5079469;28;20028;-72
2021/04/06 07:55:06;;;;;;;1.45;0.30;;;8.10;30.10;;;;;;5079109;28;20032;-72
2021/04/06 07:57:43;;;;;;;0.85;0.43;;;8.10;30.60;;;;;;5079485;28;20029;-72
2021/04/06 08:00:10;;;;;;;0.57;0.32;;;8.10;30.90;;;;;;5079459;28;20017;-72
2021/04/06 08:02:43;;;;;;;0.75;0.30;;;8.20;30.00;;;;;;5079430;28;20071;-72
2021/04/06 08:05:16;;;;;;;0.70;0.32;;;8.30;32.00;;;;;;5079071;28;20103;-72
2021/04/06 08:07:41;;;;;;;0.40;0.25;;;8.30;30.90;;;;;;5079080;28;20024;-72
2021/04/06 08:10:10;;;;;;;3.63;0.38;;;8.30;29.70;;;;;;5079296;28;20025;-72
2021/04/06 08:12:37;;;;;;;1.05;0.30;;;8.30;30.30;;;;;;5078969;28;20108;-72
2021/04/06 08:15:18;;;;;;;2.47;0.52;;;8.50;31.80;;;;;;5079005;28;20020;-72
2021/04/06 08:17:54;;;;;;;2.88;0.40;;;8.70;31.40;;;;;;5078870;28;20415;-72
2021/04/06 08:20:21;;;;;;;1.65;0.50;;;8.80;30.70;;;;;;5078943;28;20016;-72
2021/04/06 08:22:51;;;;;;;1.15;0.70;;;8.80;42.50;;;;;;5078540;28;20024;-72
2021/04/06 08:25:20;;;;;;;3.38;1.10;;;8.60;56.50;;;;;;5060963;28;20040;-72
2021/04/06 08:27:47;;;;;;;1.10;0.65;;;8.30;54.80;;;;;;5078910;28;20029;-72
2021/04/06 08:30:18;;;;;;;2.88;0.70;;;8.30;53.90;;;;;;5078650;28;20052;-72
2021/04/06 08:33:04;;;;;;;2.35;0.88;;;8.10;49.40;;;;;;5060846;28;20032;-72
2021/04/06 08:35:45;;;;;;;3.03;0.82;;;8.10;51.10;;;;;;5078324;28;20048;-72
2021/04/06 08:38:23;;;;;;;1.90;0.98;;;8.20;54.30;;;;;;5078452;28;20432;-72
2021/04/06 08:41:12;;;;;;;2.60;0.50;;;8.30;58.00;;;;;;5078426;28;20032;-72
2021/04/06 08:43:50;;;;;;;3.90;0.60;;;8.20;57.60;;;;;;5068376;28;20036;-72
2021/04/06 08:46:43;;;;;;;0.85;0.50;;;8.10;57.10;;;;;;5078673;28;20033;-72
2021/04/06 08:49:14;;;;;;;1.00;0.50;;;8.00;59.70;;;;;;5078300;28;20049;-72
2021/04/06 08:51:46;;;;;;;2.78;0.60;;;7.90;60.60;;;;;;5078272;28;20028;-72
2021/04/06 08:54:27;;;;;;;1.20;0.50;;;7.70;59.90;;;;;;5077935;28;20045;-72
2021/04/06 08:56:54;;;;;;;0.80;0.50;;;7.50;62.50;;;;;;5078227;28;20020;-72
2021/04/06 08:59:30;;;;;;;4.20;0.52;;;7.40;63.20;;;;;;5078208;28;20080;-72
2021/04/06 09:02:02;;;;;;;3.05;0.50;;;7.40;62.20;;;;;;5078214;28;20355;-72
2021/04/06 09:04:29;;;;;;;1.38;0.50;;;7.30;63.40;;;;;;5077905;28;20103;-72
2021/04/06 09:06:55;;;;;;;4.18;0.47;;;7.30;64.60;;;;;;5060206;28;20071;-72
2021/04/06 09:09:31;;;;;;;3.65;0.68;;;7.40;66.10;;;;;;5077941;28;20029;-72
2021/04/06 09:12:00;;;;;;;3.78;0.50;;;7.60;63.90;;;;;;5077835;28;20386;-72
2021/04/06 09:14:29;;;;;;;4.13;0.50;;;7.60;64.10;;;;;;5077602;28;20020;-72
2021/04/06 09:16:55;;;;;;;3.17;0.43;;;7.60;64.30;;;;;;5077683;28;20020;-72
2021/04/06 09:19:23;;;;;;;2.90;0.57;;;7.30;65.20;;;;;;5077825;28;20021;-72
2021/04/06 09:21:55;;;;;;;1.95;0.70;;;7.10;66.50;;;;;;5077558;28;20020;-72
2021/04/06 09:24:22;;;;;;;4.03;0.63;;;7.20;66.10;;;;;;5077506;28;20035;-72
2021/04/06 09:26:50;;;;;;;1.10;0.57;;;7.50;66.70;;;;;;5077503;28;20028;-72
2021/04/06 09:29:23;;;;;;;1.80;0.63;;;8.30;65.50;;;;;;5077478;28;20020;-72
2021/04/06 09:31:58;;;;;;;4.45;0.80;;;9.60;63.00;;;;;;5077426;28;20025;-72
2021/04/06 09:34:28;;;;;;;4.80;1.52;;;10.60;61.60;;;;;;5076507;28;20501;-72
2021/04/06 09:37:02;;;;;;;1.00;0.52;;;11.50;58.80;;;;;;5077333;28;20033;-72
2021/04/06 09:39:30;;;;;;;2.35;0.50;;;11.70;57.10;;;;;;5059594;28;20036;-72
2021/04/06 09:41:57;;;;;;;1.65;0.57;;;11.10;57.40;;;;;;5077210;28;20036;-72
2021/04/06 09:44:27;;;;;;;4.68;0.60;;;11.10;58.70;;;;;;5077234;28;20431;-72
2021/04/06 09:46:56;;;;;;;2.85;0.50;;;11.30;57.70;;;;;;5077143;28;20412;-72
2021/04/06 09:49:28;;;;;;;3.25;0.40;;;11.50;58.80;;;;;;5076918;28;20040;-72
2021/04/06 09:51:54;;;;;;;7.95;0.50;;;11.20;57.60;;;;;;5077333;28;20067;-72
2021/04/06 09:54:27;;;;;;;5.10;0.80;;;11.00;57.70;;;;;;5077005;28;20523;-72
2021/04/06 09:56:55;;;;;;;3.17;0.43;;;11.20;57.90;;;;;;5077045;28;20021;-72
2021/04/06 09:59:21;;;;;;;3.53;0.40;;;11.20;57.40;;;;;;5076977;28;20078;-72
2021/04/06 10:01:54;;;;;;;2.90;0.40;;;10.60;58.50;;;;;;5076951;28;20032;-72
2021/04/06 10:04:37;;;;;;;1.98;0.43;;;9.80;58.40;;;;;;5059123;28;20029;-72
2021/04/06 10:07:16;;;;;;;1.58;0.43;;;8.90;61.50;;;;;;5077108;28;20043;-72
2021/04/06 10:10:07;;;;;;;4.80;0.40;;;8.40;64.40;;;;;;5076833;28;20027;-72
2021/04/06 10:12:33;;;;;;;1.95;0.30;;;8.30;63.90;;;;;;5058297;28;20056;-72
2021/04/06 10:15:00;;;;;;;0.85;0.40;;;8.50;63.50;;;;;;5081261;28;20032;-72
2021/04/06 10:17:42;;;;;;;15.68;0.70;;;8.90;60.80;;;;;;5093773;28;20020;-72
2021/04/06 10:20:12;;;;;;;6.20;0.47;;;9.60;61.90;;;;;;5097047;28;20479;-72
2021/04/06 10:22:44;;;;;;;1.77;0.30;;;9.70;59.00;;;;;;5097131;28;20032;-72
2021/04/06 10:25:13;;;;;;;2.50;0.63;;;9.00;60.70;;;;;;5096914;28;20369;-72
2021/04/06 10:27:40;;;;;;;4.22;0.50;;;8.60;62.30;;;;;;5096867;28;20055;-72
2021/04/06 10:30:26;;;;;;;7.55;0.45;;;7.90;64.20;;;;;;5078945;28;20024;-72
2021/04/06 10:33:01;;;;;;;1.02;0.55;;;7.90;66.20;;;;;;5096957;28;20032;-72
2021/04/06 10:35:29;;;;;;;1.95;0.50;;;8.20;66.10;;;;;;5096634;28;20028;-72
2021/04/06 10:38:01;;;;;;;0.57;0.30;;;8.80;64.50;;;;;;5096759;28;20028;-72
2021/04/06 10:40:26;;;;;;;2.08;0.40;;;8.80;62.50;;;;;;5096729;28;20023;-72
2021/04/06 10:42:55;;;;;;;0.80;0.40;;;8.60;63.80;;;;;;5096958;28;20029;-72
2021/04/06 10:45:22;;;;;;;2.45;0.50;;;8.50;64.60;;;;;;5079896;28;20209;-72
2021/04/06 10:48:00;;;;;;;3.55;0.55;;;8.40;64.50;;;;;;5100893;28;20106;-72
2021/04/06 10:50:31;;;;;;;1.00;0.50;;;7.50;63.60;;;;;;5100656;28;20044;-72
2021/04/06 10:52:57;;;;;;;2.65;0.40;;;7.20;66.50;;;;;;5100957;28;20032;-72
2021/04/06 10:55:37;;;;;;;1.67;0.60;;;7.40;69.30;;;;;;5100611;28;20028;-72
2021/04/06 10:58:04;;;;;;;1.17;0.50;;;8.00;66.00;;;;;;5100688;28;20032;-72
2021/04/06 11:00:31;;;;;;;2.63;0.50;;;8.80;65.00;;;;;;5100897;28;20312;-72
2021/04/06 11:03:18;;;;;;;3.55;0.47;;;8.60;62.00;;;;;;5100697;28;20020;-72
2021/04/06 11:05:45;;;;;;;0.90;0.55;;;8.50;62.50;;;;;;5100495;28;20316;-72
2021/04/06 11:08:25;;;;;;;0.90;0.40;;;9.50;63.80;;;;;;5100458;28;20054;-72
2021/04/06 11:10:56;;;;;;;6.47;0.70;;;9.90;61.00;;;;;;5100983;28;20316;-72
2021/04/06 11:13:22;;;;;;;1.45;0.40;;;9.30;62.10;;;;;;5100204;28;20035;-72
2021/04/06 11:15:49;;;;;;;0.98;0.52;;;9.10;61.40;;;;;;5100324;28;20027;-72
2021/04/06 11:18:15;;;;;;;1.00;0.32;;;8.70;62.00;;;;;;5100305;28;20073;-72
2021/04/06 11:20:41;;;;;;;4.38;0.70;;;8.00;62.10;;;;;;5100240;28;20043;-72
2021/04/06 11:23:07;;;;;;;1.13;0.47;;;7.40;63.30;;;;;;5100470;28;20400;-72
2021/04/06 11:25:33;;;;;;;0.95;0.70;;;7.20;64.30;;;;;;5100050;28;20032;-72
2021/04/06 11:27:59;;;;;;;1.23;0.63;;;7.00;65.20;;;;;;5100349;28;20036;-72
2021/04/06 11:30:32;;;;;;;1.33;0.50;;;7.00;66.90;;;;;;5100318;28;20312;-72
2021/04/06 11:33:02;;;;;;;0.90;0.40;;;7.40;64.90;;;;;;5100234;28;20032;-72
2021/04/06 11:35:28;;;;;;;0.82;0.43;;;7.30;65.10;;;;;;5099814;28;20032;-72
2021/04/06 11:37:55;;;;;;;1.65;0.55;;;7.00;65.70;;;;;;5099942;28;20024;-72
2021/04/06 11:40:21;;;;;;;1.60;0.60;;;6.70;67.30;;;;;;5099892;28;20020;-72
2021/04/06 11:42:47;;;;;;;2.28;0.50;;;6.60;68.60;;;;;;5099804;28;20050;-72
2021/04/06 11:45:13;;;;;;;0.77;0.40;;;6.70;66.90;;;;;;5081720;28;20024;-72
2021/04/06 11:47:39;;;;;;;2.90;0.60;;;6.40;68.00;;;;;;5099698;28;20362;-72
2021/04/06 11:50:07;;;;;;;1.30;0.75;;;6.30;68.10;;;;;;5099557;28;20055;-72
2021/04/06 11:52:33;;;;;;;1.08;0.47;;;6.30;69.50;;;;;;5099706;28;20028;-72
2021/04/06 11:54:59;;;;;;;1.92;0.55;;;6.30;70.10;;;;;;5099484;28;20026;-72
2021/04/06 11:57:25;;;;;;;1.25;0.70;;;6.10;69.00;;;;;;5080719;28;20020;-72
2021/04/06 11:59:52;;;;;;;1.05;0.60;;;5.90;69.60;;;;;;5081842;28;20031;-72
2021/04/06 12:02:18;;;;;;;1.33;0.60;;;5.70;70.50;;;;;;5099441;28;20016;-72
2021/04/06 12:04:44;;;;;;;1.40;0.70;;;5.70;70.90;;;;;;5081364;28;20024;-72
2021/04/06 12:07:10;;;;;;;2.35;0.60;;;5.80;71.70;;;;;;5099393;28;20028;-72
2021/04/06 12:09:35;;;;;;;1.08;0.60;;;6.00;70.00;;;;;;5099310;28;20292;-72
2021/04/06 12:12:02;;;;;;;1.58;0.50;;;6.10;70.70;;;;;;5099255;28;20097;-72
2021/04/06 12:14:27;;;;;;;4.00;0.65;;;6.10;69.20;;;;;;5099054;28;20446;-72
2021/04/06 12:16:53;;;;;;;3.17;0.60;;;6.10;68.80;;;;;;5081283;28;20028;-72
2021/04/06 12:19:19;;;;;;;4.68;0.70;;;6.20;69.30;;;;;;5099165;28;20355;-72
2021/04/06 12:21:44;;;;;;;1.98;0.70;;;6.30;69.90;;;;;;5081049;28;20103;-72
2021/04/06 12:24:10;;;;;;;0.80;0.50;;;6.60;69.60;;;;;;5081029;28;20036;-72
2021/04/06 12:26:36;;;;;;;1.55;0.47;;;6.60;68.10;;;;;;5098881;28;20034;-72
2021/04/06 12:29:02;;;;;;;3.30;0.60;;;6.40;67.90;;;;;;5099213;28;20020;-72
2021/04/06 12:31:28;;;;;;;1.95;0.80;;;6.30;68.10;;;;;;5098907;28;20104;-72
2021/04/06 12:33:54;;;;;;;1.38;0.50;;;6.10;68.90;;;;;;5098721;28;20027;-72
2021/04/06 12:36:23;;;;;;;0.85;0.50;;;6.00;68.30;;;;;;5098779;28;20320;-72
2021/04/06 12:38:49;;;;;;;1.13;0.60;;;6.20;70.00;;;;;;5099055;28;20293;-72
2021/04/06 12:41:16;;;;;;;1.05;0.47;;;6.50;67.30;;;;;;5098675;28;20092;-72
2021/04/06 12:43:41;;;;;;;1.63;0.60;;;6.40;68.90;;;;;;5098544;28;20035;-72
2021/04/06 12:46:07;;;;;;;1.45;0.77;;;6.30;68.00;;;;;;5098886;28;20028;-72
2021/04/06 12:48:33;;;;;;;1.83;0.70;;;6.30;68.00;;;;;;5098491;28;20031;-72
2021/04/06 12:50:59;;;;;;;1.80;0.60;;;6.40;67.70;;;;;;5098279;28;20048;-72
2021/04/06 12:53:24;;;;;;;1.58;0.80;;;6.50;66.80;;;;;;5098652;28;20028;-72
2021/04/06 12:55:50;;;;;;;3.17;0.77;;;6.50;66.40;;;;;;5080482;28;20028;-72
2021/04/06 12:58:15;;;;;;;1.55;0.70;;;6.30;67.30;;;;;;5098677;28;20016;-72
2021/04/06 13:00:41;;;;;;;0.90;0.70;;;6.00;66.80;;;;;;5098325;28;20062;-72
2021/04/06 13:03:07;;;;;;;1.80;0.70;;;5.70;66.90;;;;;;5098268;28;20074;-72
2021/04/06 13:05:33;;;;;;;1.98;0.70;;;5.60;67.00;;;;;;5080125;28;20349;-72
2021/04/06 13:07:58;;;;;;;5.25;0.77;;;5.70;67.70;;;;;;5098093;28;20027;-72
2021/04/06 13:10:24;;;;;;;5.03;0.90;;;5.90;67.70;;;;;;5098150;28;20024;-72
2021/04/06 13:12:51;;;;;;;1.95;0.93;;;6.40;68.60;;;;;;5098063;28;20031;-72
2021/04/06 13:15:17;;;;;;;30.27;2.03;;;7.00;65.20;;;;;;5097821;28;20111;-72
2021/04/06 13:17:44;;;;;;;2.83;1.33;;;7.00;63.70;;;;;;5097937;28;20360;-72
2021/04/06 13:20:15;;;;;;;1.40;0.70;;;7.00;64.50;;;;;;5097912;28;20451;-72
2021/04/06 13:22:42;;;;;;;3.35;1.00;;;7.30;65.00;;;;;;5097874;28;20028;-72
2021/04/06 13:25:09;;;;;;;2.53;0.60;;;7.40;63.00;;;;;;5097804;28;20043;-72
2021/04/06 13:27:35;;;;;;;5.53;1.15;;;7.40;63.20;;;;;;5097722;28;20016;-72
2021/04/06 13:30:01;;;;;;;3.22;0.98;;;6.90;62.70;;;;;;5097947;28;20039;-72
2021/04/06 13:32:27;;;;;;;4.10;0.80;;;6.30;64.50;;;;;;5097680;28;20316;-72
2021/04/06 13:34:52;;;;;;;1.58;0.90;;;6.10;65.80;;;;;;5097481;28;20023;-72
2021/04/06 13:37:18;;;;;;;1.30;0.90;;;6.00;66.50;;;;;;5079697;28;20020;-72
2021/04/06 13:39:44;;;;;;;3.30;0.80;;;6.10;66.10;;;;;;5097442;28;20028;-72
2021/04/06 13:42:10;;;;;;;1.92;0.85;;;6.30;66.00;;;;;;5097680;28;20069;-72
2021/04/06 13:44:38;;;;;;;1.58;0.70;;;6.40;63.80;;;;;;5079352;28;20031;-72
2021/04/06 13:47:04;;;;;;;3.80;0.93;;;6.40;63.90;;;;;;5097362;28;20057;-72
2021/04/06 13:49:31;;;;;;;3.72;0.70;;;6.60;65.50;;;;;;5097371;28;20044;-72
2021/04/06 13:51:56;;;;;;;3.17;0.80;;;6.80;65.50;;;;;;5097268;28;20024;-72
2021/04/06 13:54:22;;;;;;;3.33;1.35;;;6.80;63.40;;;;;;5097151;28;20043;-72
2021/04/06 13:56:48;;;;;;;1.73;0.73;;;6.30;63.40;;;;;;5097435;28;20024;-72
2021/04/06 13:59:13;;;;;;;2.33;0.85;;;6.00;64.60;;;;;;5079254;28;20031;-72
2021/04/06 14:01:39;;;;;;;3.72;1.00;;;6.00;65.00;;;;;;5079286;28;20024;-72
2021/04/06 14:04:05;;;;;;;3.08;1.15;;;5.90;65.40;;;;;;5097047;28;20043;-72
2021/04/06 14:06:30;;;;;;;1.88;0.90;;;5.70;65.50;;;;;;5097347;28;20016;-72
2021/04/06 14:08:56;;;;;;;1.42;0.82;;;5.50;65.80;;;;;;5079245;28;20347;-72
2021/04/06 14:11:22;;;;;;;1.63;0.88;;;5.50;66.20;;;;;;5097073;28;20433;-72
2021/04/06 14:13:48;;;;;;;2.95;0.80;;;5.70;67.70;;;;;;5078941;28;20028;-72
2021/04/06 14:16:14;;;;;;;2.22;1.10;;;5.80;67.50;;;;;;5097024;28;20018;-72
2021/04/06 14:18:40;;;;;;;1.67;0.93;;;6.00;66.70;;;;;;5097086;28;20020;-72
2021/04/06 14:21:08;;;;;;;2.78;1.08;;;6.00;65.00;;;;;;5096553;28;20446;-72
2021/04/06 14:23:34;;;;;;;2.15;0.95;;;6.00;64.20;;;;;;5097279;28;20024;-72
2021/04/06 14:26:02;;;;;;;3.38;1.30;;;5.70;65.50;;;;;;5078943;28;20024;-72
2021/04/06 14:28:27;;;;;;;1.67;0.75;;;5.50;66.20;;;;;;5079064;28;20020;-72
2021/04/06 14:30:54;;;;;;;5.20;1.38;;;5.50;66.90;;;;;;5096831;28;20032;-72
2021/04/06 14:33:21;;;;;;;6.47;1.08;;;5.50;66.90;;;;;;5096889;28;20388;-72
2021/04/06 14:35:49;;;;;;;1.30;0.80;;;5.40;66.60;;;;;;5078919;28;20051;-72
2021/04/06 14:38:16;;;;;;;1.40;0.93;;;5.40;65.60;;;;;;5097042;28;20020;-72